createdAt,value
2023-04-23T00:01:39.350Z,14.05
2023-04-23T00:04:09.336Z,15.00
2023-04-23T00:06:37.169Z,17.10
2023-04-23T00:09:07.005Z,15.10
2023-04-23T00:11:35.407Z,17.83
2023-04-23T00:14:02.987Z,17.27
2023-04-23T00:16:30.953Z,14.27
2023-04-23T00:18:58.635Z,13.10
2023-04-23T00:21:27.689Z,15.38
2023-04-23T00:23:55.215Z,15.50
2023-04-23T00:26:22.869Z,14.57
2023-04-23T00:28:50.318Z,17.58
2023-04-23T00:31:18.667Z,13.68
2023-04-23T00:33:46.427Z,13.38
2023-04-23T00:36:13.963Z,14.52
2023-04-23T00:38:41.407Z,14.63
2023-04-23T00:41:09.453Z,15.95
2023-04-23T00:43:38.047Z,14.98
2023-04-23T00:46:06.119Z,13.57
2023-04-23T00:48:34.982Z,13.53
2023-04-23T00:51:06.194Z,16.20
2023-04-23T00:53:34.228Z,14.40
2023-04-23T00:56:02.260Z,14.00
2023-04-23T00:58:29.985Z,15.70
2023-04-23T01:00:58.020Z,14.07
2023-04-23T01:03:26.580Z,14.63
2023-04-23T01:05:54.319Z,15.25
2023-04-23T01:08:23.710Z,14.33
2023-04-23T01:10:51.332Z,14.10
2023-04-23T01:13:18.824Z,13.80
2023-04-23T01:15:46.604Z,16.37
2023-04-23T01:18:15.955Z,15.95
2023-04-23T01:20:43.861Z,14.60
2023-04-23T01:23:11.901Z,15.27
2023-04-23T01:25:39.330Z,14.40
2023-04-23T01:28:06.834Z,15.18
2023-04-23T01:30:35.361Z,14.38
2023-04-23T01:33:03.614Z,14.93
2023-04-23T01:35:31.945Z,15.52
2023-04-23T01:38:02.959Z,15.43
2023-04-23T01:40:30.831Z,16.00
2023-04-23T01:42:58.516Z,16.48
2023-04-23T01:45:26.451Z,16.27
2023-04-23T01:47:54.196Z,16.55
2023-04-23T01:50:24.459Z,14.68
2023-04-23T01:52:52.250Z,14.57
2023-04-23T01:55:20.898Z,16.02
2023-04-23T01:57:48.341Z,15.93
2023-04-23T02:00:17.178Z,14.13
2023-04-23T02:02:45.425Z,15.85
2023-04-23T02:05:16.456Z,18.52
2023-04-23T02:07:45.452Z,13.95
2023-04-23T02:10:13.460Z,14.32
2023-04-23T02:12:41.575Z,15.25
2023-04-23T02:15:11.200Z,15.80
2023-04-23T02:17:40.250Z,15.48
2023-04-23T02:20:11.720Z,15.32
2023-04-23T02:22:41.453Z,15.05
2023-04-23T02:25:09.609Z,16.12
2023-04-23T02:27:37.134Z,16.62
2023-04-23T02:30:05.004Z,14.02
2023-04-23T02:32:32.747Z,15.35
2023-04-23T02:35:02.075Z,17.02
2023-04-23T02:37:29.537Z,14.25
2023-04-23T02:39:57.217Z,14.23
2023-04-23T02:42:24.625Z,14.90
2023-04-23T02:44:52.047Z,15.00
2023-04-23T02:47:19.894Z,15.13
2023-04-23T02:49:47.336Z,15.23
2023-04-23T02:52:14.794Z,15.07
2023-04-23T02:54:42.666Z,16.50
2023-04-23T02:57:10.319Z,16.40
2023-04-23T02:59:38.611Z,19.20
2023-04-23T03:02:06.477Z,15.83
2023-04-23T03:04:34.493Z,15.93
2023-04-23T03:07:02.012Z,15.77
2023-04-23T03:09:32.921Z,15.52
2023-04-23T03:12:00.377Z,13.70
2023-04-23T03:14:27.903Z,16.58
2023-04-23T03:16:55.893Z,14.85
2023-04-23T03:19:23.588Z,17.37
2023-04-23T03:21:51.076Z,16.55
2023-04-23T03:24:18.828Z,18.17
2023-04-23T03:26:46.354Z,15.95
2023-04-23T03:29:13.798Z,14.18
2023-04-23T03:31:41.490Z,14.90
2023-04-23T03:34:09.511Z,15.70
2023-04-23T03:36:37.105Z,17.05
2023-04-23T03:39:04.933Z,16.30
2023-04-23T03:41:33.745Z,15.30
2023-04-23T03:44:01.690Z,15.27
2023-04-23T03:46:29.805Z,15.38
2023-04-23T03:48:57.283Z,14.98
2023-04-23T03:51:25.045Z,14.43
2023-04-23T03:53:52.720Z,15.98
2023-04-23T03:56:21.748Z,14.55
2023-04-23T03:58:49.828Z,15.60
2023-04-23T04:01:18.255Z,15.68
2023-04-23T04:03:46.186Z,15.13
2023-04-23T04:06:13.746Z,17.17
2023-04-23T04:08:41.259Z,15.32
2023-04-23T04:11:08.940Z,13.75
2023-04-23T04:13:36.391Z,13.15
2023-04-23T04:16:03.978Z,14.82
2023-04-23T04:18:31.844Z,14.35
2023-04-23T04:20:59.271Z,14.90
2023-04-23T04:23:26.935Z,14.45
2023-04-23T04:25:56.567Z,15.00
2023-04-23T04:28:25.299Z,14.45
2023-04-23T04:30:57.592Z,14.20
2023-04-23T04:33:26.000Z,15.13
2023-04-23T04:35:54.843Z,15.10
2023-04-23T04:38:22.427Z,16.50
2023-04-23T04:40:50.607Z,16.42
2023-04-23T04:43:18.517Z,15.50
2023-04-23T04:45:45.957Z,15.98
2023-04-23T04:48:13.591Z,15.63
2023-04-23T04:50:40.980Z,15.55
2023-04-23T04:53:08.396Z,14.65
2023-04-23T04:55:36.056Z,16.12
2023-04-23T04:58:03.481Z,16.70
2023-04-23T05:00:30.882Z,15.98
2023-04-23T05:02:59.031Z,15.63
2023-04-23T05:05:27.268Z,15.52
2023-04-23T05:07:54.943Z,16.35
2023-04-23T05:10:22.730Z,16.23
2023-04-23T05:12:51.894Z,15.88
2023-04-23T05:15:19.535Z,16.92
2023-04-23T05:17:47.335Z,16.25
2023-04-23T05:20:15.304Z,15.53
2023-04-23T05:22:43.199Z,17.40
2023-04-23T05:25:14.635Z,16.17
2023-04-23T05:27:42.188Z,19.10
2023-04-23T05:30:11.135Z,16.50
2023-04-23T05:32:39.294Z,14.87
2023-04-23T05:35:09.722Z,15.05
2023-04-23T05:37:37.148Z,16.33
2023-04-23T05:40:07.293Z,14.00
2023-04-23T05:42:36.028Z,15.85
2023-04-23T05:45:03.718Z,15.90
2023-04-23T05:47:34.321Z,15.15
2023-04-23T05:50:02.787Z,15.15
2023-04-23T05:52:33.547Z,15.90
2023-04-23T05:55:01.523Z,16.35
2023-04-23T05:57:28.969Z,14.10
2023-04-23T05:59:56.609Z,16.02
2023-04-23T06:02:25.311Z,15.73
2023-04-23T06:04:53.256Z,15.27
2023-04-23T06:07:21.147Z,16.62
2023-04-23T06:09:48.770Z,16.52
2023-04-23T06:12:16.438Z,16.12
2023-04-23T06:14:43.931Z,15.95
2023-04-23T06:17:11.502Z,16.02
2023-04-23T06:19:39.183Z,17.67
2023-04-23T06:22:06.557Z,17.37
2023-04-23T06:24:33.956Z,17.67
2023-04-23T06:27:02.840Z,17.45
2023-04-23T06:29:30.960Z,16.92
2023-04-23T06:32:01.805Z,16.05
2023-04-23T06:34:29.527Z,16.95
2023-04-23T06:36:56.950Z,14.40
2023-04-23T06:39:24.380Z,16.58
2023-04-23T06:41:52.116Z,15.85
2023-04-23T06:44:21.015Z,15.45
2023-04-23T06:46:48.598Z,15.37
2023-04-23T06:49:16.312Z,15.60
2023-04-23T06:51:44.181Z,16.97
2023-04-23T06:54:11.573Z,22.92
2023-04-23T06:56:39.239Z,16.75
2023-04-23T06:59:06.955Z,15.38
2023-04-23T07:01:35.277Z,13.07
2023-04-23T07:04:03.029Z,13.38
2023-04-23T07:06:31.262Z,15.02
2023-04-23T07:08:58.953Z,15.50
2023-04-23T07:11:26.789Z,14.57
2023-04-23T07:13:54.622Z,14.15
2023-04-23T07:16:22.968Z,11.55
2023-04-23T07:18:50.860Z,14.52
2023-04-23T07:21:18.246Z,13.88
2023-04-23T07:23:45.995Z,14.18
2023-04-23T07:26:14.034Z,11.77
2023-04-23T07:28:41.595Z,13.02
2023-04-23T07:31:09.495Z,12.63
2023-04-23T07:33:37.184Z,14.77
2023-04-23T07:36:04.611Z,14.45
2023-04-23T07:38:31.994Z,14.25
2023-04-23T07:41:00.003Z,13.88
2023-04-23T07:43:27.597Z,13.32
2023-04-23T07:45:55.554Z,11.35
2023-04-23T07:48:23.254Z,10.03
2023-04-23T07:50:51.251Z,10.70
2023-04-23T07:53:18.768Z,8.93
2023-04-23T07:55:46.467Z,9.30
2023-04-23T07:58:14.085Z,8.68
2023-04-23T08:00:42.804Z,9.10
2023-04-23T08:03:10.597Z,8.25
2023-04-23T08:05:39.230Z,8.98
2023-04-23T08:08:08.111Z,11.17
2023-04-23T08:10:36.022Z,9.80
2023-04-23T08:13:03.717Z,8.98
2023-04-23T08:15:31.145Z,9.50
2023-04-23T08:17:58.945Z,9.20
2023-04-23T08:20:27.469Z,9.30
2023-04-23T08:22:55.737Z,7.95
2023-04-23T08:25:23.632Z,11.00
2023-04-23T08:27:51.184Z,9.15
2023-04-23T08:30:18.671Z,9.98
2023-04-23T08:32:49.592Z,10.23
2023-04-23T08:35:17.335Z,10.55
2023-04-23T08:40:13.283Z,12.45
2023-04-23T08:42:51.700Z,11.45
2023-04-23T08:45:19.787Z,11.63
